Time;durP1;ratioP1;P1;durP2;ratioP2;P2;SDS_P1;SDS_P2;PMS_P1;PMS_P2;Temp;Humidity;BMP_temperature;BMP_pressure;BME280_temperature;BME280_humidity;BME280_pressure;Samples;Min_cycle;Max_cycle;Signal;HPM_P1;HPM_P2
2023/06/17 00:02:07;;;;;;;4.80;4.40;;;15.70;98.20;;;;;;5059488;28;20275;-81
2023/06/17 00:04:33;;;;;;;4.87;4.40;;;15.60;97.90;;;;;;5043265;28;20248;-80
2023/06/17 00:07:00;;;;;;;5.17;4.73;;;15.60;98.10;;;;;;5056242;28;20199;-80
2023/06/17 00:09:26;;;;;;;5.57;3.90;;;15.60;97.70;;;;;;5056153;28;20707;-79
2023/06/17 00:11:52;;;;;;;4.60;4.20;;;15.60;98.30;;;;;;5056585;28;20239;-79
2023/06/17 00:14:20;;;;;;;4.07;3.80;;;15.50;98.70;;;;;;5058889;28;20271;-80
2023/06/17 00:16:47;;;;;;;4.97;4.30;;;15.40;98.60;;;;;;5047736;28;20172;-79
2023/06/17 00:19:16;;;;;;;4.40;4.00;;;15.40;98.70;;;;;;5043054;28;20177;-79
2023/06/17 00:21:43;;;;;;;4.13;3.83;;;15.30;98.10;;;;;;5037637;28;20617;-79
2023/06/17 00:24:12;;;;;;;4.53;4.10;;;15.40;98.20;;;;;;5043706;28;20188;-80
2023/06/17 00:26:38;;;;;;;5.40;4.20;;;15.40;97.80;;;;;;5063993;28;20632;-80
2023/06/17 00:29:05;;;;;;;4.70;4.30;;;15.40;97.90;;;;;;5065329;28;20169;-78
2023/06/17 00:31:31;;;;;;;4.23;3.93;;;15.50;98.10;;;;;;5055418;28;20211;-81
2023/06/17 00:33:57;;;;;;;4.97;4.07;;;15.40;98.50;;;;;;5055010;28;20177;-80
2023/06/17 00:36:23;;;;;;;5.07;3.90;;;15.30;98.20;;;;;;5054926;28;20586;-81
2023/06/17 00:38:50;;;;;;;4.13;3.83;;;15.20;97.90;;;;;;5054804;28;20176;-78
2023/06/17 00:41:16;;;;;;;4.60;3.83;;;15.30;98.20;;;;;;5055027;28;20604;-81
2023/06/17 00:43:42;;;;;;;4.50;3.80;;;15.10;98.10;;;;;;5037293;28;20184;-80
2023/06/17 00:46:09;;;;;;;3.80;3.50;;;15.10;98.30;;;;;;5056322;28;20176;-80
2023/06/17 00:48:35;;;;;;;4.20;3.90;;;15.20;98.50;;;;;;5056582;28;20527;-81
2023/06/17 00:51:04;;;;;;;4.60;4.20;;;15.20;98.80;;;;;;5037620;28;20661;-79
2023/06/17 00:53:31;;;;;;;4.13;3.83;;;15.10;98.70;;;;;;5038065;28;20228;-81
2023/06/17 00:56:00;;;;;;;4.57;4.13;;;15.10;98.80;;;;;;5036441;28;20195;-80
2023/06/17 00:58:27;;;;;;;7.57;4.17;;;15.10;98.90;;;;;;5033920;28;20200;-81
2023/06/17 01:00:53;;;;;;;5.60;4.07;;;15.00;99.10;;;;;;5051498;28;20228;-82
2023/06/17 01:03:18;;;;;;;4.37;3.97;;;15.00;99.10;;;;;;5047801;28;20255;-82
2023/06/17 01:05:47;;;;;;;4.47;4.00;;;15.00;99.60;;;;;;5034881;28;20247;-81
2023/06/17 01:08:28;;;;;;;4.17;3.77;;;15.00;99.50;;;;;;5035696;28;20234;-83
2023/06/17 01:11:13;;;;;;;4.30;3.90;;;14.90;99.90;;;;;;5046431;28;20213;-82
2023/06/17 01:13:42;;;;;;;4.20;3.90;;;14.80;99.20;;;;;;5043454;28;20195;-79
2023/06/17 01:16:09;;;;;;;4.67;4.27;;;14.80;99.90;;;;;;5036929;28;20372;-81
2023/06/17 01:18:36;;;;;;;4.43;4.03;;;14.80;99.90;;;;;;5034269;28;20172;-81
2023/06/17 01:21:03;;;;;;;4.30;4.00;;;14.80;99.90;;;;;;5035698;28;20184;-82
2023/06/17 01:23:34;;;;;;;5.33;4.63;;;14.70;99.90;;;;;;5056529;28;20161;-80
2023/06/17 01:26:03;;;;;;;5.17;4.43;;;14.70;99.90;;;;;;5042307;28;20185;-80
2023/06/17 01:28:30;;;;;;;5.13;3.73;;;14.60;99.90;;;;;;5033774;28;20181;-82
2023/06/17 01:30:57;;;;;;;4.13;3.83;;;14.60;99.90;;;;;;5034664;28;20718;-81
2023/06/17 01:33:25;;;;;;;4.43;4.13;;;14.60;99.90;;;;;;5033650;28;20220;-80
2023/06/17 01:36:14;;;;;;;4.30;4.00;;;14.60;99.90;;;;;;5034666;28;20173;-81
2023/06/17 01:38:46;;;;;;;4.30;4.00;;;14.60;99.90;;;;;;5038150;28;20693;-79
2023/06/17 01:41:17;;;;;;;3.90;3.60;;;14.60;99.90;;;;;;5039048;28;20176;-81
2023/06/17 01:43:44;;;;;;;4.53;4.20;;;14.60;99.90;;;;;;5034895;28;20667;-79
2023/06/17 01:46:14;;;;;;;4.03;3.73;;;14.50;99.90;;;;;;5033016;28;20180;-80
2023/06/17 01:48:40;;;;;;;4.63;4.30;;;14.50;99.90;;;;;;5034715;28;20218;-80
2023/06/17 01:51:07;;;;;;;4.03;3.70;;;14.50;99.90;;;;;;5034409;28;20204;-80
2023/06/17 01:53:32;;;;;;;3.90;3.50;;;14.50;99.90;;;;;;5032924;28;20279;-81
2023/06/17 01:55:58;;;;;;;3.90;3.60;;;14.50;99.90;;;;;;5035147;28;20633;-80
2023/06/17 01:58:24;;;;;;;4.00;3.73;;;14.40;99.90;;;;;;5035419;28;20177;-80
2023/06/17 02:00:50;;;;;;;4.23;3.93;;;14.40;99.90;;;;;;5035234;28;20176;-81
2023/06/17 02:03:16;;;;;;;3.90;3.67;;;14.40;99.90;;;;;;5036696;28;20172;-80
2023/06/17 02:05:42;;;;;;;4.60;4.20;;;14.40;99.90;;;;;;5045647;28;20230;-79
2023/06/17 02:08:15;;;;;;;4.67;4.27;;;14.20;99.90;;;;;;5040277;28;20180;-80
2023/06/17 02:10:41;;;;;;;6.00;4.40;;;14.20;99.90;;;;;;5041860;28;20291;-81
2023/06/17 02:13:08;;;;;;;4.70;4.17;;;14.10;99.90;;;;;;5038149;28;20176;-81
2023/06/17 02:15:34;;;;;;;4.37;4.07;;;14.20;99.90;;;;;;5039962;28;20228;-79
2023/06/17 02:18:00;;;;;;;4.30;4.00;;;14.30;99.90;;;;;;5039370;28;20331;-82
2023/06/17 02:20:27;;;;;;;4.43;4.13;;;14.30;99.90;;;;;;5033032;28;20247;-81
2023/06/17 02:22:53;;;;;;;4.83;3.93;;;14.20;99.90;;;;;;5034577;28;20176;-81
2023/06/17 02:25:19;;;;;;;4.50;4.10;;;14.20;99.90;;;;;;5035115;28;20173;-81
2023/06/17 02:27:45;;;;;;;4.13;3.83;;;14.20;99.90;;;;;;5033992;28;20203;-84
2023/06/17 02:30:12;;;;;;;4.07;3.77;;;14.20;99.90;;;;;;5035764;28;20172;-82
2023/06/17 02:32:37;;;;;;;3.60;3.40;;;14.20;99.90;;;;;;5035744;28;20584;-82
2023/06/17 02:35:03;;;;;;;4.43;4.13;;;14.10;99.90;;;;;;5047654;28;20165;-80
2023/06/17 02:37:31;;;;;;;4.20;3.90;;;14.10;99.90;;;;;;5054749;28;20177;-82
2023/06/17 02:39:56;;;;;;;3.90;3.60;;;14.00;99.90;;;;;;5050089;28;20240;-84
2023/06/17 02:42:23;;;;;;;4.40;4.00;;;14.00;99.90;;;;;;5037593;28;20176;-84
2023/06/17 02:44:48;;;;;;;4.60;4.10;;;13.90;99.90;;;;;;5034287;28;20264;-82
2023/06/17 02:47:14;;;;;;;3.90;3.60;;;13.80;99.90;;;;;;5047288;28;20170;-82
2023/06/17 02:49:40;;;;;;;4.10;3.80;;;13.90;99.90;;;;;;5049247;28;20177;-79
2023/06/17 02:52:06;;;;;;;4.20;3.90;;;13.80;99.90;;;;;;5039239;28;20216;-81
2023/06/17 02:54:32;;;;;;;4.63;4.07;;;13.80;99.90;;;;;;5055100;28;20164;-81
2023/06/17 02:56:57;;;;;;;4.47;4.07;;;13.80;99.90;;;;;;5055673;28;20662;-82
2023/06/17 02:59:23;;;;;;;3.90;3.60;;;13.80;99.90;;;;;;5054943;28;20241;-81
2023/06/17 03:01:49;;;;;;;4.20;3.80;;;13.80;99.90;;;;;;5035571;28;20569;-82
2023/06/17 03:04:20;;;;;;;4.17;3.77;;;13.80;99.90;;;;;;5036433;28;20226;-79
2023/06/17 03:06:45;;;;;;;5.30;4.30;;;13.70;99.90;;;;;;5036233;28;20179;-79
2023/06/17 03:09:12;;;;;;;3.90;3.60;;;13.80;99.90;;;;;;5054085;28;20296;-81
2023/06/17 03:11:39;;;;;;;5.10;3.63;;;13.80;99.90;;;;;;5057166;28;20215;-79
2023/06/17 03:14:07;;;;;;;3.80;3.50;;;13.80;99.90;;;;;;5057883;28;20168;-82
2023/06/17 03:16:34;;;;;;;4.63;3.63;;;13.70;99.90;;;;;;5039838;28;20229;-79
2023/06/17 03:19:02;;;;;;;3.70;3.40;;;13.70;99.90;;;;;;5057805;28;20164;-81
2023/06/17 03:21:30;;;;;;;3.80;3.50;;;13.60;99.90;;;;;;5040961;28;20183;-80
2023/06/17 03:24:01;;;;;;;4.30;4.00;;;13.60;99.90;;;;;;5051930;28;20182;-81
2023/06/17 03:26:27;;;;;;;3.80;3.50;;;13.60;99.90;;;;;;5071860;28;20251;-80
2023/06/17 03:28:53;;;;;;;3.33;3.03;;;13.60;99.90;;;;;;5045786;28;20184;-80
2023/06/17 03:31:20;;;;;;;3.73;3.43;;;13.50;99.90;;;;;;5061977;28;20614;-80
2023/06/17 03:33:50;;;;;;;3.40;3.10;;;13.40;99.90;;;;;;5054039;28;20209;-81
2023/06/17 03:36:18;;;;;;;3.50;3.30;;;13.40;99.90;;;;;;5066089;28;20623;-82
2023/06/17 03:38:45;;;;;;;4.00;3.23;;;13.50;99.90;;;;;;5053843;28;20184;-79
2023/06/17 03:41:11;;;;;;;4.00;3.70;;;13.50;99.90;;;;;;5061386;28;20600;-81
2023/06/17 03:43:37;;;;;;;3.77;3.50;;;13.60;99.90;;;;;;5060226;28;20249;-80
2023/06/17 03:46:04;;;;;;;3.87;3.57;;;13.50;99.90;;;;;;5042114;28;20658;-79
2023/06/17 03:48:30;;;;;;;4.23;3.90;;;13.50;99.90;;;;;;5056819;28;20168;-79
2023/06/17 03:50:56;;;;;;;4.13;3.83;;;13.40;99.90;;;;;;5056094;28;20264;-81
2023/06/17 03:53:21;;;;;;;3.67;3.37;;;13.40;99.90;;;;;;5041231;28;20234;-80
2023/06/17 03:55:47;;;;;;;4.37;3.67;;;13.40;99.90;;;;;;5040760;28;20176;-81
2023/06/17 03:58:14;;;;;;;3.97;3.67;;;13.40;99.90;;;;;;5059986;28;20168;-80
2023/06/17 04:00:41;;;;;;;3.73;3.50;;;13.50;99.90;;;;;;5039754;28;20183;-80
2023/06/17 04:03:07;;;;;;;4.30;4.00;;;13.40;99.90;;;;;;5056780;28;20221;-81
2023/06/17 04:05:33;;;;;;;4.30;4.00;;;13.40;99.90;;;;;;5056817;28;20643;-79
2023/06/17 04:08:03;;;;;;;4.23;3.93;;;13.40;99.90;;;;;;5038567;28;20180;-81
2023/06/17 04:10:29;;;;;;;4.30;3.90;;;13.50;99.90;;;;;;5056411;28;20195;-79
2023/06/17 04:12:56;;;;;;;3.87;3.60;;;13.60;99.90;;;;;;5038797;28;20235;-80
2023/06/17 04:15:22;;;;;;;4.83;3.63;;;13.70;99.90;;;;;;5041874;28;20191;-80
2023/06/17 04:17:47;;;;;;;5.20;3.73;;;13.80;99.90;;;;;;5056435;28;20168;-79
2023/06/17 04:20:16;;;;;;;3.70;3.40;;;13.90;99.90;;;;;;5038620;28;20180;-80
2023/06/17 04:22:43;;;;;;;4.13;3.80;;;14.00;99.90;;;;;;5059489;28;20255;-79
2023/06/17 04:25:10;;;;;;;4.67;4.00;;;14.00;99.90;;;;;;5059286;28;20185;-79
2023/06/17 04:27:36;;;;;;;4.63;4.23;;;14.00;99.90;;;;;;5055929;28;20168;-78
2023/06/17 04:30:07;;;;;;;4.50;4.20;;;14.10;99.90;;;;;;5037958;28;20177;-80
2023/06/17 04:32:35;;;;;;;4.67;4.27;;;14.10;99.90;;;;;;5051468;28;20192;-79
2023/06/17 04:35:03;;;;;;;3.90;3.60;;;14.00;99.90;;;;;;5037816;28;20180;-81
2023/06/17 04:37:30;;;;;;;3.80;3.57;;;14.10;99.90;;;;;;5037925;28;20604;-80
2023/06/17 04:39:56;;;;;;;5.20;3.60;;;14.20;99.90;;;;;;5037661;28;20176;-82
2023/06/17 04:42:23;;;;;;;4.20;3.77;;;14.30;99.90;;;;;;5037467;28;20544;-81
2023/06/17 04:44:49;;;;;;;3.87;3.63;;;14.40;99.90;;;;;;5055513;28;20178;-81
2023/06/17 04:47:19;;;;;;;3.67;3.37;;;14.50;99.90;;;;;;5045492;28;20172;-79
2023/06/17 04:49:47;;;;;;;4.23;3.83;;;14.50;99.90;;;;;;5038259;28;20175;-80
2023/06/17 04:52:19;;;;;;;4.20;3.80;;;14.50;99.90;;;;;;5055069;28;20577;-80
2023/06/17 04:54:45;;;;;;;3.70;3.50;;;14.60;99.90;;;;;;5040685;28;20629;-82
2023/06/17 04:57:11;;;;;;;3.70;3.10;;;14.60;99.90;;;;;;5041227;28;20196;-80
2023/06/17 04:59:37;;;;;;;3.10;2.90;;;14.70;99.90;;;;;;5042133;28;20508;-81
2023/06/17 05:02:03;;;;;;;3.47;3.20;;;14.80;99.90;;;;;;5043889;28;20175;-80
2023/06/17 05:04:29;;;;;;;3.60;3.30;;;14.90;99.90;;;;;;5036624;28;20588;-80
2023/06/17 05:06:55;;;;;;;3.27;3.07;;;15.10;99.90;;;;;;5054342;28;20237;-82
2023/06/17 05:09:22;;;;;;;3.20;2.90;;;15.20;99.90;;;;;;5037114;28;20263;-80
2023/06/17 05:11:49;;;;;;;3.30;3.10;;;15.30;99.90;;;;;;5036487;28;20404;-81
2023/06/17 05:14:14;;;;;;;3.40;3.20;;;15.30;99.90;;;;;;5036809;28;20179;-79
2023/06/17 05:16:40;;;;;;;3.73;3.53;;;15.40;99.90;;;;;;5036150;28;20674;-79
2023/06/17 05:19:06;;;;;;;4.00;3.70;;;15.40;99.90;;;;;;5035751;28;20258;-80
2023/06/17 05:21:32;;;;;;;3.87;3.57;;;15.50;99.90;;;;;;5055298;28;20218;-79
2023/06/17 05:23:57;;;;;;;4.10;3.70;;;15.50;99.90;;;;;;5036708;28;20183;-81
2023/06/17 05:26:23;;;;;;;7.57;4.63;;;15.40;99.90;;;;;;5055608;28;20181;-81
2023/06/17 05:28:49;;;;;;;4.13;3.83;;;15.50;99.90;;;;;;5036711;28;20179;-79
2023/06/17 05:31:14;;;;;;;3.80;3.50;;;15.60;99.90;;;;;;5055353;28;20296;-80
2023/06/17 05:33:40;;;;;;;4.07;3.67;;;15.60;99.90;;;;;;5037670;28;20172;-80
2023/06/17 05:36:06;;;;;;;3.67;3.47;;;15.70;99.90;;;;;;5042410;28;20206;-81
2023/06/17 05:38:32;;;;;;;3.93;3.53;;;15.80;99.90;;;;;;5068669;28;20161;-82
2023/06/17 05:40:58;;;;;;;3.40;3.20;;;16.00;99.90;;;;;;5060815;28;20187;-81
2023/06/17 05:43:27;;;;;;;4.47;3.60;;;16.10;99.90;;;;;;5061544;28;20211;-79
2023/06/17 05:45:53;;;;;;;4.07;3.67;;;16.30;99.90;;;;;;5054878;28;20174;-81
2023/06/17 05:48:19;;;;;;;4.07;3.50;;;16.50;99.90;;;;;;5063641;28;20219;-80
2023/06/17 05:50:45;;;;;;;3.43;3.23;;;16.60;99.70;;;;;;5066419;28;20260;-81
2023/06/17 05:53:13;;;;;;;4.70;3.47;;;16.80;99.70;;;;;;5033379;28;20323;-80
2023/06/17 05:55:38;;;;;;;3.93;3.63;;;17.00;99.50;;;;;;5034365;28;20663;-80
2023/06/17 05:58:04;;;;;;;5.67;3.97;;;17.20;99.40;;;;;;5032503;28;20181;-80
2023/06/17 06:00:30;;;;;;;4.20;3.90;;;17.30;99.50;;;;;;5051092;28;20167;-81
2023/06/17 06:02:56;;;;;;;3.57;3.37;;;17.40;99.40;;;;;;5042825;28;20172;-80
2023/06/17 06:05:21;;;;;;;3.53;3.23;;;17.60;98.60;;;;;;5033044;28;20183;-80
2023/06/17 06:07:47;;;;;;;3.80;3.50;;;17.60;98.20;;;;;;5033106;28;20168;-80
2023/06/17 06:10:13;;;;;;;3.70;3.50;;;17.70;98.50;;;;;;5034764;28;20247;-80
2023/06/17 06:12:40;;;;;;;3.67;3.37;;;17.80;98.20;;;;;;5032776;28;20191;-80
2023/06/17 06:15:06;;;;;;;3.90;3.60;;;17.80;98.30;;;;;;5033144;28;20181;-80
2023/06/17 06:17:33;;;;;;;3.67;3.37;;;18.10;97.80;;;;;;5033446;28;20243;-79
2023/06/17 06:19:59;;;;;;;3.33;3.03;;;18.40;97.60;;;;;;5033617;28;20182;-80
2023/06/17 06:22:25;;;;;;;4.80;4.03;;;18.50;97.70;;;;;;5035840;28;20255;-80
2023/06/17 06:24:50;;;;;;;4.03;3.73;;;18.70;97.20;;;;;;5044495;28;20177;-79
2023/06/17 06:27:16;;;;;;;3.77;3.17;;;18.80;97.20;;;;;;5038482;28;20184;-80
2023/06/17 06:29:43;;;;;;;4.73;3.40;;;18.70;97.10;;;;;;5035105;28;20172;-80
2023/06/17 06:32:09;;;;;;;3.37;3.17;;;18.60;96.70;;;;;;5033991;28;20211;-79
2023/06/17 06:34:35;;;;;;;5.87;3.33;;;18.80;96.80;;;;;;5032652;28;20177;-78
2023/06/17 06:37:00;;;;;;;3.50;3.30;;;18.80;96.80;;;;;;5033805;28;20180;-80
2023/06/17 06:39:26;;;;;;;3.30;3.10;;;18.70;97.00;;;;;;5033501;28;20181;-79
2023/06/17 06:41:52;;;;;;;3.40;3.10;;;18.80;96.40;;;;;;5034428;28;20247;-80
2023/06/17 06:44:19;;;;;;;3.20;3.00;;;18.90;96.60;;;;;;5036753;28;20172;-80
2023/06/17 06:46:45;;;;;;;3.17;2.97;;;19.00;96.10;;;;;;5040273;28;20710;-82
2023/06/17 06:49:11;;;;;;;3.20;3.00;;;19.10;96.20;;;;;;5039147;28;20231;-81
2023/06/17 06:51:37;;;;;;;4.33;3.50;;;19.20;96.20;;;;;;5024894;28;20213;-79
2023/06/17 06:54:05;;;;;;;3.40;3.20;;;19.30;96.20;;;;;;5059269;28;20287;-80
2023/06/17 06:56:31;;;;;;;3.30;3.00;;;19.40;96.50;;;;;;5065398;28;20195;-78
2023/06/17 06:58:57;;;;;;;3.20;2.80;;;19.50;96.10;;;;;;5063260;28;20180;-78
2023/06/17 07:01:23;;;;;;;2.60;2.50;;;19.60;95.60;;;;;;5058007;28;20178;-80
2023/06/17 07:03:50;;;;;;;3.00;2.80;;;19.80;95.60;;;;;;5042346;28;20534;-79
2023/06/17 07:06:16;;;;;;;2.93;2.73;;;19.80;95.70;;;;;;5039967;28;20211;-80
2023/06/17 07:08:42;;;;;;;3.50;3.20;;;20.00;96.10;;;;;;5059203;28;20666;-80
2023/06/17 07:11:07;;;;;;;3.20;3.00;;;20.10;96.40;;;;;;5040426;28;20215;-78
2023/06/17 07:13:33;;;;;;;2.70;2.57;;;20.10;95.10;;;;;;5059027;28;20172;-79
2023/06/17 07:15:59;;;;;;;3.03;2.83;;;20.20;95.90;;;;;;5058973;28;20597;-79
2023/06/17 07:18:25;;;;;;;2.87;2.67;;;19.90;96.30;;;;;;5040772;28;20188;-79
2023/06/17 07:20:50;;;;;;;2.77;2.67;;;19.80;95.70;;;;;;5058470;28;20639;-80
2023/06/17 07:23:16;;;;;;;2.93;2.73;;;19.90;95.70;;;;;;5058082;28;20231;-78
2023/06/17 07:25:42;;;;;;;2.73;2.63;;;20.00;95.70;;;;;;5053545;28;20180;-80
2023/06/17 07:28:08;;;;;;;2.70;2.60;;;20.10;96.20;;;;;;5077415;28;20235;-80
2023/06/17 07:30:34;;;;;;;3.53;3.23;;;20.20;95.10;;;;;;5042242;28;20175;-81
2023/06/17 07:33:00;;;;;;;3.17;2.87;;;20.30;95.10;;;;;;5062583;28;20172;-80
2023/06/17 07:35:26;;;;;;;4.70;2.90;;;20.30;95.00;;;;;;5044828;28;20176;-79
2023/06/17 07:37:52;;;;;;;3.10;2.90;;;20.40;94.80;;;;;;5074967;28;20782;-80
2023/06/17 07:40:18;;;;;;;3.23;3.03;;;20.40;94.50;;;;;;5074995;28;20180;-80
2023/06/17 07:42:44;;;;;;;3.00;2.80;;;20.30;94.40;;;;;;5060207;28;20167;-81
2023/06/17 07:45:10;;;;;;;2.50;2.40;;;20.30;94.70;;;;;;5042752;28;20226;-80
2023/06/17 07:47:37;;;;;;;3.10;2.90;;;20.30;94.70;;;;;;5055704;28;20172;-78
2023/06/17 07:50:04;;;;;;;3.10;2.87;;;20.30;94.50;;;;;;5055885;28;20168;-80
2023/06/17 07:52:32;;;;;;;2.87;2.67;;;20.40;94.90;;;;;;5055600;28;20219;-79
2023/06/17 07:54:58;;;;;;;3.03;2.93;;;20.30;94.50;;;;;;5055325;28;20164;-80
2023/06/17 07:57:24;;;;;;;2.80;2.60;;;20.50;94.30;;;;;;5055227;28;20257;-79
2023/06/17 07:59:49;;;;;;;2.60;2.50;;;20.50;94.50;;;;;;5037890;28;20643;-79
2023/06/17 08:02:16;;;;;;;2.80;2.60;;;20.50;94.90;;;;;;5055721;28;20231;-81
2023/06/17 08:04:43;;;;;;;3.33;3.03;;;20.50;94.90;;;;;;5055423;28;20180;-79
2023/06/17 08:07:10;;;;;;;3.10;2.90;;;20.40;95.30;;;;;;5055342;28;20183;-80
2023/06/17 08:09:36;;;;;;;3.27;3.07;;;20.40;95.10;;;;;;5037653;28;20666;-79
2023/06/17 08:12:02;;;;;;;3.03;2.83;;;20.40;95.30;;;;;;5055662;28;20211;-81
2023/06/17 08:14:28;;;;;;;3.40;3.07;;;20.40;94.80;;;;;;5037786;28;20996;-80
2023/06/17 08:16:55;;;;;;;2.63;2.53;;;20.50;94.80;;;;;;5037623;28;20283;-82
2023/06/17 08:19:21;;;;;;;2.40;2.30;;;20.80;93.70;;;;;;5037787;28;20187;-81
2023/06/17 08:21:46;;;;;;;2.80;2.60;;;21.00;93.10;;;;;;5055755;28;20164;-79
2023/06/17 08:24:16;;;;;;;2.53;2.43;;;21.20;92.60;;;;;;5055679;28;20175;-81
2023/06/17 08:26:43;;;;;;;2.63;2.43;;;21.30;92.90;;;;;;5054834;28;20172;-81
2023/06/17 08:29:13;;;;;;;2.43;2.33;;;21.50;92.70;;;;;;5036809;28;20286;-80
2023/06/17 08:31:40;;;;;;;2.33;2.23;;;21.50;91.90;;;;;;5036959;28;20211;-82
2023/06/17 08:34:06;;;;;;;3.30;2.73;;;21.50;92.40;;;;;;5055181;28;20259;-83
2023/06/17 08:36:32;;;;;;;2.50;2.40;;;21.50;92.10;;;;;;5044209;28;20246;-82
2023/06/17 08:38:59;;;;;;;2.33;2.23;;;21.50;91.80;;;;;;5034798;28;20723;-82
2023/06/17 08:41:26;;;;;;;2.60;2.50;;;21.50;91.90;;;;;;5017044;28;20316;-80
2023/06/17 08:44:00;;;;;;;3.20;3.00;;;21.50;92.10;;;;;;5034776;28;20164;-81
2023/06/17 08:46:27;;;;;;;2.53;2.43;;;21.50;91.90;;;;;;5034696;28;20177;-81
2023/06/17 08:48:53;;;;;;;2.40;2.20;;;21.30;91.70;;;;;;5034605;28;20589;-80
2023/06/17 08:51:20;;;;;;;2.60;2.40;;;21.20;91.30;;;;;;5034870;28;20204;-82
2023/06/17 08:53:47;;;;;;;2.57;2.37;;;21.30;92.10;;;;;;5017163;28;20235;-81
2023/06/17 08:56:13;;;;;;;2.30;2.10;;;21.40;91.70;;;;;;5036023;28;20188;-80
2023/06/17 08:58:39;;;;;;;2.30;2.20;;;21.40;91.70;;;;;;5019794;28;20184;-82
2023/06/17 09:01:09;;;;;;;2.30;2.20;;;21.30;91.80;;;;;;5038571;28;20168;-82
2023/06/17 09:03:38;;;;;;;3.83;2.07;;;21.30;91.50;;;;;;5034685;28;20160;-80
2023/06/17 09:06:15;;;;;;;2.40;2.30;;;21.20;91.60;;;;;;5055859;28;20198;-80
2023/06/17 09:08:43;;;;;;;2.50;2.30;;;21.20;91.40;;;;;;5052750;28;20164;-80
2023/06/17 09:11:10;;;;;;;2.10;2.00;;;21.20;91.80;;;;;;5059823;28;21233;-82
2023/06/17 09:13:36;;;;;;;2.10;2.00;;;21.10;91.40;;;;;;5041820;28;20264;-81
2023/06/17 09:16:02;;;;;;;2.20;2.10;;;21.20;91.20;;;;;;5038245;28;20241;-80
2023/06/17 09:18:32;;;;;;;2.70;2.53;;;21.40;91.40;;;;;;5053246;28;20184;-80
2023/06/17 09:20:58;;;;;;;2.10;2.00;;;21.40;90.80;;;;;;5036993;28;20160;-79
2023/06/17 09:23:24;;;;;;;2.30;2.20;;;21.50;90.30;;;;;;5053175;28;20180;-79
2023/06/17 09:26:03;;;;;;;2.40;2.30;;;21.60;90.80;;;;;;5048151;28;20176;-80
2023/06/17 09:28:30;;;;;;;2.10;2.00;;;21.60;90.30;;;;;;5020991;28;20199;-81
2023/06/17 09:30:57;;;;;;;2.40;2.30;;;21.60;90.60;;;;;;5018556;28;20219;-80
2023/06/17 09:33:26;;;;;;;2.23;2.13;;;21.70;90.40;;;;;;5046788;28;20318;-81
2023/06/17 09:36:05;;;;;;;2.40;2.30;;;21.70;90.40;;;;;;5055986;28;20167;-80
2023/06/17 09:38:31;;;;;;;2.50;2.40;;;21.70;90.30;;;;;;5058489;28;20195;-80
2023/06/17 09:41:02;;;;;;;2.60;2.50;;;21.80;90.20;;;;;;5063949;28;20180;-81
2023/06/17 09:43:28;;;;;;;2.57;2.37;;;21.90;89.60;;;;;;5052343;28;20176;-80
2023/06/17 09:45:56;;;;;;;2.77;2.67;;;21.90;89.40;;;;;;5052861;28;20189;-79
2023/06/17 09:48:24;;;;;;;2.70;2.57;;;21.90;89.30;;;;;;5022846;28;20591;-81
2023/06/17 09:50:57;;;;;;;2.60;2.50;;;22.10;88.80;;;;;;5015238;28;20197;-79
2023/06/17 09:53:29;;;;;;;3.30;3.00;;;22.20;86.80;;;;;;5033464;28;20263;-80
2023/06/17 09:55:57;;;;;;;2.80;2.60;;;22.10;87.40;;;;;;5015493;28;20181;-79
2023/06/17 09:58:32;;;;;;;2.70;2.60;;;22.10;87.70;;;;;;5015822;28;20192;-80
2023/06/17 10:01:06;;;;;;;3.10;2.90;;;22.20;88.60;;;;;;5023627;28;20229;-81
2023/06/17 10:03:33;;;;;;;2.93;2.73;;;22.30;86.70;;;;;;5035297;28;20191;-80
2023/06/17 10:06:07;;;;;;;3.07;2.70;;;22.40;86.80;;;;;;5052722;28;20183;-80
2023/06/17 10:08:36;;;;;;;2.50;2.40;;;22.30;86.10;;;;;;5036938;28;20164;-80
2023/06/17 10:11:02;;;;;;;3.00;2.80;;;22.40;86.60;;;;;;5052655;28;20294;-82
2023/06/17 10:13:40;;;;;;;3.33;2.73;;;22.50;86.20;;;;;;5021015;28;20208;-80
2023/06/17 10:16:12;;;;;;;3.00;2.80;;;22.70;86.40;;;;;;5035347;28;20161;-80
2023/06/17 10:18:41;;;;;;;4.10;3.07;;;22.90;84.30;;;;;;5036778;28;20221;-81
2023/06/17 10:21:10;;;;;;;3.17;2.80;;;23.10;84.70;;;;;;5019425;28;20618;-80
2023/06/17 10:23:37;;;;;;;2.93;2.73;;;23.10;83.50;;;;;;5037132;28;20716;-80
2023/06/17 10:26:07;;;;;;;2.70;2.60;;;23.10;83.70;;;;;;5036930;28;20171;-80
2023/06/17 10:28:56;;;;;;;3.10;3.00;;;23.10;84.30;;;;;;5038009;28;20187;-81
2023/06/17 10:31:28;;;;;;;3.50;3.20;;;23.00;84.00;;;;;;5019620;28;20268;-80
2023/06/17 10:33:55;;;;;;;3.27;3.07;;;23.10;82.50;;;;;;5019308;28;20176;-80
2023/06/17 10:36:22;;;;;;;3.37;3.17;;;22.90;83.80;;;;;;5018990;28;20207;-80
2023/06/17 10:38:55;;;;;;;3.17;2.97;;;22.80;83.90;;;;;;5030534;28;20180;-81
2023/06/17 10:41:21;;;;;;;3.57;3.27;;;22.80;83.70;;;;;;5052602;28;20190;-82
2023/06/17 10:43:49;;;;;;;3.03;2.80;;;22.70;84.70;;;;;;5037715;28;20206;-82
2023/06/17 10:46:26;;;;;;;2.93;2.67;;;22.80;85.80;;;;;;5038344;28;20184;-78
2023/06/17 10:48:58;;;;;;;3.10;2.90;;;22.80;85.60;;;;;;5039519;28;20240;-79
2023/06/17 10:51:24;;;;;;;3.13;2.97;;;22.80;85.50;;;;;;5039965;28;20216;-79
2023/06/17 10:53:51;;;;;;;3.50;3.30;;;22.90;85.90;;;;;;5041289;28;20235;-78
2023/06/17 10:56:17;;;;;;;3.70;3.40;;;23.00;84.20;;;;;;5019171;28;20185;-79
2023/06/17 10:58:45;;;;;;;3.40;3.10;;;23.00;83.50;;;;;;5019600;28;20184;-80
2023/06/17 11:01:11;;;;;;;3.78;3.40;;;23.20;84.20;;;;;;5036130;28;20211;-78
2023/06/17 11:03:38;;;;;;;3.33;3.13;;;23.20;84.20;;;;;;5036493;28;20636;-79
2023/06/17 11:06:09;;;;;;;3.33;3.13;;;23.20;83.10;;;;;;5036386;28;20267;-79
2023/06/17 11:08:37;;;;;;;3.20;3.00;;;23.10;82.10;;;;;;5037990;28;20180;-82
2023/06/17 11:11:13;;;;;;;3.67;3.37;;;23.10;83.00;;;;;;5026786;28;20212;-79
2023/06/17 11:13:43;;;;;;;3.27;3.07;;;23.10;81.60;;;;;;5038371;28;20183;-78
2023/06/17 11:16:10;;;;;;;3.53;3.23;;;23.10;81.60;;;;;;5036355;28;20161;-79
2023/06/17 11:18:38;;;;;;;3.03;2.83;;;23.20;81.40;;;;;;5047695;28;20169;-79
2023/06/17 11:21:05;;;;;;;3.53;3.20;;;23.20;81.70;;;;;;5019267;28;20173;-76
2023/06/17 11:23:31;;;;;;;3.40;3.20;;;23.20;80.80;;;;;;5018325;28;20613;-77
2023/06/17 11:25:57;;;;;;;3.10;2.70;;;23.30;81.20;;;;;;5036329;28;20175;-79
2023/06/17 11:28:23;;;;;;;3.27;3.00;;;23.40;81.60;;;;;;5036743;28;20560;-81
2023/06/17 11:30:49;;;;;;;3.40;3.20;;;23.60;82.00;;;;;;5017265;28;20211;-79
2023/06/17 11:33:20;;;;;;;3.67;3.47;;;23.70;80.70;;;;;;5053171;28;20184;-80
2023/06/17 11:35:48;;;;;;;3.07;2.73;;;23.70;81.80;;;;;;5057651;28;20156;-79
2023/06/17 11:38:16;;;;;;;3.70;3.40;;;23.70;79.70;;;;;;5041360;28;20529;-80
2023/06/17 11:40:42;;;;;;;3.40;3.20;;;23.70;79.80;;;;;;5043724;28;20175;-80
2023/06/17 11:43:09;;;;;;;3.47;3.17;;;23.80;80.60;;;;;;5041864;28;20221;-80
2023/06/17 11:45:35;;;;;;;3.47;3.17;;;23.90;79.70;;;;;;5072914;28;20168;-82
2023/06/17 11:48:05;;;;;;;3.00;2.90;;;23.90;78.60;;;;;;5044155;28;20172;-78
2023/06/17 11:50:31;;;;;;;3.15;2.95;;;23.80;78.80;;;;;;5059709;28;20245;-79
2023/06/17 11:52:57;;;;;;;3.30;3.10;;;23.90;79.00;;;;;;5059360;28;20227;-81
2023/06/17 11:55:36;;;;;;;3.15;2.95;;;24.00;79.90;;;;;;5055656;28;20238;-80
2023/06/17 11:58:03;;;;;;;3.60;3.30;;;24.10;79.00;;;;;;5055242;28;20180;-81
2023/06/17 12:00:30;;;;;;;3.20;3.00;;;24.10;79.10;;;;;;5054918;28;20175;-80
2023/06/17 12:02:59;;;;;;;3.30;3.10;;;24.10;79.10;;;;;;5037199;28;20535;-78
2023/06/17 12:05:28;;;;;;;3.63;3.33;;;24.10;79.20;;;;;;5054961;28;20168;-77
2023/06/17 12:07:59;;;;;;;3.10;2.90;;;23.90;78.30;;;;;;5055468;28;20164;-79
2023/06/17 12:10:26;;;;;;;3.50;3.30;;;23.70;78.50;;;;;;5068784;28;20182;-80
2023/06/17 12:12:57;;;;;;;3.22;3.03;;;23.60;79.00;;;;;;5057820;28;20229;-80
2023/06/17 12:15:30;;;;;;;3.28;3.08;;;23.60;79.50;;;;;;5063113;28;20148;-77
2023/06/17 12:18:09;;;;;;;3.28;2.97;;;23.60;79.60;;;;;;5069270;28;20521;-78
2023/06/17 12:20:36;;;;;;;2.75;2.60;;;23.80;79.30;;;;;;5056856;28;20164;-79
2023/06/17 12:23:02;;;;;;;3.17;2.97;;;24.00;76.60;;;;;;5057714;28;20175;-78
2023/06/17 12:25:33;;;;;;;3.63;3.03;;;24.00;76.50;;;;;;5066231;28;20179;-77
2023/06/17 12:27:58;;;;;;;3.03;2.83;;;24.10;75.30;;;;;;5071716;28;20215;-79
2023/06/17 12:30:25;;;;;;;3.10;2.90;;;24.10;75.10;;;;;;5074721;28;20243;-82
2023/06/17 12:32:51;;;;;;;2.92;2.72;;;24.20;75.60;;;;;;5059868;28;20195;-81
2023/06/17 12:35:17;;;;;;;3.17;2.97;;;24.20;75.20;;;;;;5057279;28;20168;-79
2023/06/17 12:37:43;;;;;;;2.85;2.75;;;24.20;74.60;;;;;;5039679;28;20298;-78
2023/06/17 12:40:11;;;;;;;3.20;3.00;;;24.00;75.10;;;;;;5059899;28;20172;-81
2023/06/17 12:42:38;;;;;;;3.05;2.88;;;23.90;75.10;;;;;;5056579;28;20222;-81
2023/06/17 12:45:06;;;;;;;3.33;3.13;;;23.90;76.40;;;;;;5057873;28;20179;-81
2023/06/17 12:47:32;;;;;;;2.80;2.70;;;23.80;76.80;;;;;;5058702;28;20217;-81
2023/06/17 12:49:58;;;;;;;3.30;3.10;;;23.60;76.20;;;;;;5057531;28;20168;-81